createdAt,value
2023-01-17T00:02:19.775Z,49.00
2023-01-17T00:05:06.172Z,50.23
2023-01-17T00:07:51.902Z,49.20
2023-01-17T00:10:24.511Z,52.27
2023-01-17T00:13:03.436Z,50.40
2023-01-17T00:15:31.742Z,46.30
2023-01-17T00:17:59.387Z,47.97
2023-01-17T00:20:48.200Z,52.30
2023-01-17T00:23:36.306Z,48.40
2023-01-17T00:26:05.859Z,47.13
2023-01-17T00:28:37.166Z,44.73
2023-01-17T00:31:05.748Z,52.87
2023-01-17T00:33:32.888Z,43.30
2023-01-17T00:36:01.171Z,45.73
2023-01-17T00:38:30.740Z,40.57
2023-01-17T00:41:12.357Z,41.57
2023-01-17T00:43:58.415Z,37.23
2023-01-17T00:46:44.488Z,38.83
2023-01-17T00:49:30.202Z,38.80
2023-01-17T00:52:16.153Z,44.10
2023-01-17T00:55:01.809Z,36.90
2023-01-17T00:57:47.427Z,33.53
2023-01-17T01:00:33.846Z,35.57
2023-01-17T01:03:19.251Z,32.53
2023-01-17T01:06:05.138Z,34.00
2023-01-17T01:08:50.911Z,33.13
2023-01-17T01:11:39.108Z,30.20
2023-01-17T01:14:27.239Z,29.53
2023-01-17T01:17:13.111Z,28.37
2023-01-17T01:19:58.895Z,26.73
2023-01-17T01:22:44.629Z,25.23
2023-01-17T01:25:30.224Z,30.57
2023-01-17T01:28:28.463Z,31.87
2023-01-17T01:31:13.788Z,27.43
2023-01-17T01:33:40.786Z,22.70
2023-01-17T01:36:09.065Z,18.97
2023-01-17T01:38:36.429Z,22.43
2023-01-17T01:41:03.781Z,17.70
2023-01-17T01:43:49.358Z,17.63
2023-01-17T01:46:27.711Z,14.97
2023-01-17T01:48:57.871Z,16.50
2023-01-17T01:51:41.232Z,15.73
2023-01-17T01:54:25.619Z,15.53
2023-01-17T01:56:56.362Z,14.43
2023-01-17T01:59:24.024Z,16.50
2023-01-17T02:01:54.912Z,12.57
2023-01-17T02:04:23.290Z,11.13
2023-01-17T02:06:58.800Z,12.37
2023-01-17T02:09:27.215Z,11.70
2023-01-17T02:11:54.598Z,10.40
2023-01-17T02:14:22.683Z,14.67
2023-01-17T02:17:17.563Z,16.60
2023-01-17T02:20:15.311Z,18.27
2023-01-17T02:22:51.215Z,22.10
2023-01-17T02:25:30.817Z,20.47
2023-01-17T02:28:22.269Z,22.53
2023-01-17T02:30:58.464Z,17.67
2023-01-17T02:33:48.222Z,18.27
2023-01-17T02:36:38.252Z,15.00
2023-01-17T02:39:09.886Z,13.93
2023-01-17T02:41:41.541Z,13.30
2023-01-17T02:44:10.311Z,12.60
2023-01-17T02:46:52.619Z,12.70
2023-01-17T02:49:24.288Z,11.40
2023-01-17T02:51:57.092Z,12.47
2023-01-17T02:54:53.497Z,13.77
2023-01-17T02:57:58.334Z,12.47
2023-01-17T03:00:43.039Z,11.83
2023-01-17T03:03:19.257Z,9.67
2023-01-17T03:05:57.472Z,11.27
2023-01-17T03:08:25.937Z,11.10
2023-01-17T03:10:53.108Z,13.03
2023-01-17T03:13:20.199Z,9.43
2023-01-17T03:15:47.679Z,8.60
2023-01-17T03:18:16.344Z,8.57
2023-01-17T03:20:43.583Z,9.07
2023-01-17T03:23:10.498Z,9.70
2023-01-17T03:25:37.556Z,8.07
2023-01-17T03:28:04.797Z,9.00
2023-01-17T03:30:31.924Z,9.40
2023-01-17T03:32:58.883Z,9.87
2023-01-17T03:35:28.431Z,8.37
2023-01-17T03:37:55.579Z,8.53
2023-01-17T03:40:22.576Z,8.37
2023-01-17T03:42:49.555Z,8.00
2023-01-17T03:45:16.782Z,8.43
2023-01-17T03:47:43.782Z,8.33
2023-01-17T03:50:12.112Z,9.77
2023-01-17T03:52:39.172Z,8.07
2023-01-17T03:55:07.597Z,9.10
2023-01-17T03:57:34.625Z,8.80
2023-01-17T04:00:01.677Z,9.63
2023-01-17T04:02:28.822Z,10.30
2023-01-17T04:04:55.835Z,11.30
2023-01-17T04:07:23.084Z,11.40
2023-01-17T04:09:50.148Z,14.07
2023-01-17T04:12:17.349Z,11.97
2023-01-17T04:14:44.589Z,12.40
2023-01-17T04:17:12.961Z,13.60
2023-01-17T04:19:41.284Z,14.40
2023-01-17T04:22:08.417Z,12.67
2023-01-17T04:24:36.788Z,15.40
2023-01-17T04:27:07.349Z,14.37
2023-01-17T04:29:34.371Z,14.43
2023-01-17T04:32:01.361Z,16.90
2023-01-17T04:34:28.435Z,13.30
2023-01-17T04:36:55.450Z,10.57
2023-01-17T04:39:22.574Z,13.07
2023-01-17T04:41:49.786Z,12.63
2023-01-17T04:44:16.750Z,11.37
2023-01-17T04:46:43.751Z,13.30
2023-01-17T04:49:10.794Z,16.43
2023-01-17T04:51:37.900Z,16.30
2023-01-17T04:54:05.102Z,16.80
2023-01-17T04:56:32.250Z,14.20
2023-01-17T04:58:59.389Z,14.10
2023-01-17T05:01:27.135Z,14.43
2023-01-17T05:03:54.107Z,15.00
2023-01-17T05:06:21.117Z,16.30
2023-01-17T05:08:48.116Z,15.63
2023-01-17T05:11:15.439Z,13.50
2023-01-17T05:13:42.451Z,13.20
2023-01-17T05:16:09.582Z,11.80
2023-01-17T05:18:37.765Z,10.33
2023-01-17T05:21:05.153Z,8.33
2023-01-17T05:23:33.037Z,7.93
2023-01-17T05:25:59.965Z,8.30
2023-01-17T05:28:27.029Z,10.10
2023-01-17T05:30:54.036Z,13.17
2023-01-17T05:33:21.047Z,13.57
2023-01-17T05:35:48.028Z,11.93
2023-01-17T05:38:15.108Z,16.27
2023-01-17T05:40:42.117Z,13.13
2023-01-17T05:43:09.348Z,15.23
2023-01-17T05:45:36.836Z,12.73
2023-01-17T05:48:04.612Z,12.57
2023-01-17T05:50:34.439Z,12.53
2023-01-17T05:53:07.776Z,16.30
2023-01-17T05:55:35.952Z,13.73
2023-01-17T05:58:03.979Z,16.93
2023-01-17T06:00:32.104Z,15.47
2023-01-17T06:03:01.122Z,15.93
2023-01-17T06:05:29.846Z,12.10
2023-01-17T06:07:57.125Z,9.57
2023-01-17T06:10:25.111Z,17.60
2023-01-17T06:13:01.674Z,15.30
2023-01-17T06:15:28.643Z,13.30
2023-01-17T06:17:55.766Z,13.00
2023-01-17T06:20:22.766Z,13.37
2023-01-17T06:22:49.968Z,11.40
2023-01-17T06:25:17.036Z,12.93
2023-01-17T06:27:43.958Z,12.73
2023-01-17T06:30:11.511Z,11.60
2023-01-17T06:32:38.509Z,11.00
2023-01-17T06:35:05.692Z,9.40
2023-01-17T06:37:32.682Z,7.83
2023-01-17T06:39:59.724Z,7.33
2023-01-17T06:42:26.700Z,7.93
2023-01-17T06:44:53.746Z,6.20
2023-01-17T06:47:20.676Z,8.80
2023-01-17T06:49:47.701Z,8.00
2023-01-17T06:52:14.785Z,5.60
2023-01-17T06:54:41.747Z,7.53
2023-01-17T06:57:08.756Z,28.47
2023-01-17T06:59:35.818Z,19.67
2023-01-17T07:02:02.844Z,23.87
2023-01-17T07:04:29.847Z,25.13
2023-01-17T07:06:56.905Z,29.90
2023-01-17T07:09:23.823Z,31.70
2023-01-17T07:11:51.924Z,27.93
2023-01-17T07:14:18.891Z,32.70
2023-01-17T07:16:46.232Z,28.90
2023-01-17T07:19:13.365Z,29.37
2023-01-17T07:21:40.600Z,22.83
2023-01-17T07:24:08.544Z,26.53
2023-01-17T07:26:37.824Z,23.63
2023-01-17T07:29:05.409Z,22.70
2023-01-17T07:31:36.888Z,20.13
2023-01-17T07:34:04.281Z,18.10
2023-01-17T07:36:31.351Z,15.57
2023-01-17T07:38:58.328Z,14.80
2023-01-17T07:41:25.511Z,19.60
2023-01-17T07:43:52.683Z,19.23
2023-01-17T07:46:20.023Z,24.73
2023-01-17T07:48:47.118Z,28.13
2023-01-17T07:51:14.150Z,24.73
2023-01-17T07:53:41.206Z,28.10
2023-01-17T07:56:08.524Z,27.37
2023-01-17T07:58:36.227Z,28.17
2023-01-17T08:01:04.137Z,27.70
2023-01-17T08:03:35.123Z,31.10
2023-01-17T08:06:02.983Z,26.27
2023-01-17T08:08:30.076Z,25.40
2023-01-17T08:10:57.047Z,26.13
2023-01-17T08:13:24.375Z,23.07
2023-01-17T08:15:51.967Z,22.73
2023-01-17T08:18:19.050Z,22.80
2023-01-17T08:20:46.093Z,22.17
2023-01-17T08:23:13.219Z,25.53
2023-01-17T08:25:40.604Z,23.57
2023-01-17T08:28:07.598Z,27.20
2023-01-17T08:30:35.039Z,28.07
2023-01-17T08:33:02.223Z,32.80
2023-01-17T08:35:29.363Z,36.03
2023-01-17T08:37:56.552Z,36.87
2023-01-17T08:40:24.091Z,29.63
2023-01-17T08:42:58.660Z,32.57
2023-01-17T08:45:26.107Z,33.50
2023-01-17T08:47:53.379Z,37.47
2023-01-17T08:50:20.845Z,39.23
2023-01-17T08:52:49.033Z,36.47
2023-01-17T08:55:17.047Z,34.83
2023-01-17T08:57:44.231Z,43.13
2023-01-17T09:00:11.767Z,42.00
2023-01-17T09:02:38.797Z,39.87
2023-01-17T09:05:06.503Z,37.87
2023-01-17T09:07:33.864Z,38.60
2023-01-17T09:10:00.915Z,42.33
2023-01-17T09:12:31.355Z,45.67
2023-01-17T09:14:58.582Z,50.67
2023-01-17T09:17:25.576Z,56.03
2023-01-17T09:19:52.580Z,57.37
2023-01-17T09:22:19.597Z,59.83
2023-01-17T09:24:46.705Z,61.00
2023-01-17T09:27:13.709Z,65.80
2023-01-17T09:29:40.847Z,69.50
2023-01-17T09:32:07.821Z,72.73
2023-01-17T09:34:34.816Z,64.40
2023-01-17T09:37:01.861Z,68.53
2023-01-17T09:39:28.817Z,69.67
2023-01-17T09:42:01.656Z,76.50
2023-01-17T09:44:35.764Z,69.37
2023-01-17T09:47:18.315Z,66.47
2023-01-17T09:49:47.073Z,77.57
2023-01-17T09:52:17.664Z,53.20
2023-01-17T09:54:48.571Z,52.03
2023-01-17T09:57:38.424Z,50.90
2023-01-17T10:00:31.753Z,49.60
2023-01-17T10:03:01.850Z,42.70
2023-01-17T10:05:50.581Z,40.70
2023-01-17T10:08:33.857Z,44.17
2023-01-17T10:11:03.809Z,45.63
2023-01-17T10:13:52.883Z,43.50
2023-01-17T10:16:32.270Z,37.72
2023-01-17T10:19:45.826Z,35.22
2023-01-17T10:22:24.315Z,32.53
2023-01-17T10:25:20.492Z,37.70
2023-01-17T10:28:15.445Z,36.78
2023-01-17T10:30:49.735Z,28.85
2023-01-17T10:33:26.298Z,33.22
2023-01-17T10:36:05.498Z,26.73
2023-01-17T10:38:38.590Z,25.85
2023-01-17T10:41:08.730Z,23.50
2023-01-17T10:44:09.237Z,24.08
2023-01-17T10:46:43.077Z,26.08
2023-01-17T10:49:18.127Z,29.08
2023-01-17T10:52:00.344Z,28.35
2023-01-17T10:54:46.367Z,30.05
2023-01-17T10:57:18.579Z,27.33
2023-01-17T10:59:45.713Z,28.27
2023-01-17T11:02:31.473Z,24.85
2023-01-17T11:05:05.671Z,28.67
2023-01-17T11:07:32.789Z,29.35
2023-01-17T11:09:59.955Z,18.58
2023-01-17T11:12:32.531Z,14.77
2023-01-17T11:15:19.877Z,13.50
2023-01-17T11:17:53.299Z,11.35
2023-01-17T11:20:43.198Z,14.32
2023-01-17T11:23:16.308Z,12.48
2023-01-17T11:25:58.141Z,12.40
2023-01-17T11:28:30.802Z,17.10
2023-01-17T11:31:27.182Z,13.63
2023-01-17T11:34:15.864Z,13.40
2023-01-17T11:36:43.280Z,13.85
2023-01-17T11:39:18.955Z,20.48
2023-01-17T11:41:47.872Z,15.70
2023-01-17T11:44:34.096Z,15.80
2023-01-17T11:47:18.992Z,17.60
2023-01-17T11:49:50.185Z,15.95
2023-01-17T11:52:24.818Z,18.33
2023-01-17T11:54:54.318Z,19.15
2023-01-17T11:57:25.816Z,20.55
2023-01-17T11:59:57.736Z,18.27
2023-01-17T12:02:48.048Z,15.40
2023-01-17T12:05:34.995Z,13.75
2023-01-17T12:08:22.623Z,14.00
2023-01-17T12:10:52.628Z,14.00
2023-01-17T12:13:57.192Z,13.75
2023-01-17T12:16:51.796Z,18.27
2023-01-17T12:19:34.129Z,12.70
2023-01-17T12:22:36.821Z,12.18
2023-01-17T12:25:24.741Z,16.10
2023-01-17T12:28:11.602Z,12.70
2023-01-17T12:31:22.178Z,11.13
2023-01-17T12:34:26.288Z,16.42
2023-01-17T12:36:58.860Z,11.20
2023-01-17T12:39:34.233Z,14.02
2023-01-17T12:42:18.691Z,15.02
2023-01-17T12:44:51.747Z,13.70
2023-01-17T12:47:20.788Z,15.82
2023-01-17T12:50:43.936Z,13.55
2023-01-17T12:53:41.061Z,12.57
2023-01-17T12:56:28.707Z,10.73
2023-01-17T12:59:21.807Z,10.13
2023-01-17T13:01:58.793Z,12.30
2023-01-17T13:04:58.571Z,9.75
2023-01-17T13:07:46.677Z,10.98
2023-01-17T13:10:31.043Z,7.88
2023-01-17T13:13:20.414Z,6.75
2023-01-17T13:15:49.832Z,6.35
2023-01-17T13:18:23.331Z,6.70
2023-01-17T13:21:06.959Z,7.38
2023-01-17T13:23:40.950Z,6.88
2023-01-17T13:26:33.106Z,10.43
2023-01-17T13:29:38.215Z,10.25
2023-01-17T13:33:03.963Z,6.00
2023-01-17T13:35:49.001Z,8.30
2023-01-17T13:38:29.479Z,6.88
2023-01-17T13:41:23.314Z,5.45
2023-01-17T13:44:09.386Z,5.82
2023-01-17T13:47:08.143Z,4.82
2023-01-17T13:49:42.922Z,10.55
2023-01-17T13:52:12.244Z,5.53
2023-01-17T13:54:50.657Z,8.50
2023-01-17T13:57:23.730Z,6.78
2023-01-17T13:59:50.783Z,5.95
2023-01-17T14:02:32.752Z,5.90
2023-01-17T14:05:10.319Z,7.78
2023-01-17T14:08:01.194Z,9.10
2023-01-17T14:10:39.324Z,7.85
2023-01-17T14:13:32.159Z,9.98
2023-01-17T14:16:00.365Z,5.60
2023-01-17T14:18:30.137Z,6.53
2023-01-17T14:21:08.794Z,8.50
2023-01-17T14:23:59.911Z,6.88
2023-01-17T14:26:29.356Z,5.88
2023-01-17T14:28:57.977Z,7.82
2023-01-17T14:31:26.335Z,13.63
2023-01-17T14:33:54.366Z,10.68
2023-01-17T14:36:29.599Z,10.63
2023-01-17T14:38:56.864Z,11.32
2023-01-17T14:41:29.465Z,10.10
2023-01-17T14:43:59.723Z,7.82
2023-01-17T14:46:33.880Z,8.70
2023-01-17T14:49:06.547Z,8.77
2023-01-17T14:51:38.597Z,12.75
2023-01-17T14:54:21.134Z,9.85
2023-01-17T14:56:48.231Z,12.73
2023-01-17T14:59:19.197Z,12.43
2023-01-17T15:02:06.809Z,10.85
2023-01-17T15:04:39.485Z,8.73
2023-01-17T15:07:12.493Z,13.10
2023-01-17T15:09:44.551Z,12.85
2023-01-17T15:12:14.662Z,13.30
2023-01-17T15:14:45.604Z,10.68
2023-01-17T15:17:20.283Z,11.00
2023-01-17T15:20:01.516Z,15.32
2023-01-17T15:22:30.103Z,12.55
2023-01-17T15:24:58.633Z,13.18
2023-01-17T15:27:26.332Z,13.70
2023-01-17T15:29:54.423Z,14.13
2023-01-17T15:32:31.299Z,20.40
2023-01-17T15:35:00.153Z,11.02
2023-01-17T15:37:36.488Z,15.40
2023-01-17T15:40:24.122Z,11.63
2023-01-17T15:42:56.742Z,11.02
2023-01-17T15:45:29.302Z,12.50
2023-01-17T15:47:56.501Z,12.00
2023-01-17T15:50:31.328Z,13.77
2023-01-17T15:53:04.757Z,12.27
2023-01-17T15:55:37.709Z,13.43
2023-01-17T15:58:21.467Z,13.83
2023-01-17T16:00:49.448Z,13.07
2023-01-17T16:03:25.452Z,15.87
2023-01-17T16:05:54.126Z,20.40
2023-01-17T16:08:31.659Z,19.27
2023-01-17T16:11:06.149Z,18.47
2023-01-17T16:13:37.180Z,18.47
2023-01-17T16:16:13.239Z,20.80
2023-01-17T16:18:40.993Z,19.70
2023-01-17T16:21:18.963Z,19.70
2023-01-17T16:23:46.721Z,19.97
2023-01-17T16:26:14.228Z,18.63
2023-01-17T16:28:41.342Z,17.77
2023-01-17T16:31:08.415Z,19.40
2023-01-17T16:33:35.708Z,19.63
2023-01-17T16:36:02.727Z,19.93
2023-01-17T16:38:30.494Z,23.83
2023-01-17T16:40:57.516Z,18.00
2023-01-17T16:43:24.549Z,19.93
2023-01-17T16:45:54.100Z,22.27
2023-01-17T16:48:21.848Z,20.90
2023-01-17T16:50:50.901Z,18.97
2023-01-17T16:53:25.425Z,19.43
2023-01-17T16:55:55.896Z,18.50
2023-01-17T16:58:23.781Z,19.57
2023-01-17T17:00:50.820Z,17.37
2023-01-17T17:03:22.482Z,17.73
2023-01-17T17:05:57.674Z,19.13
2023-01-17T17:08:25.032Z,17.10
2023-01-17T17:10:52.218Z,21.00
2023-01-17T17:13:19.248Z,23.17
2023-01-17T17:15:46.809Z,23.93
2023-01-17T17:18:15.669Z,22.97
2023-01-17T17:20:44.003Z,25.87
2023-01-17T17:23:11.546Z,24.87
2023-01-17T17:25:39.187Z,23.37
2023-01-17T17:28:06.660Z,23.63
2023-01-17T17:30:34.576Z,24.93
2023-01-17T17:33:04.608Z,24.10
2023-01-17T17:35:34.980Z,21.07
2023-01-17T17:38:02.153Z,22.93
2023-01-17T17:40:29.133Z,24.17
2023-01-17T17:42:56.166Z,23.57
2023-01-17T17:45:23.611Z,23.93
2023-01-17T17:47:54.658Z,23.23
2023-01-17T17:50:21.728Z,26.37
2023-01-17T17:52:48.902Z,24.17
2023-01-17T17:55:19.136Z,23.30
2023-01-17T17:57:46.250Z,22.00
2023-01-17T18:00:13.791Z,25.20
2023-01-17T18:02:40.778Z,27.70
2023-01-17T18:05:07.988Z,26.57
2023-01-17T18:07:35.167Z,26.30
2023-01-17T18:10:11.859Z,24.70
2023-01-17T18:12:41.921Z,26.33
2023-01-17T18:15:09.274Z,26.90
2023-01-17T18:17:36.243Z,24.63
2023-01-17T18:20:03.286Z,22.97
2023-01-17T18:22:32.348Z,26.07
2023-01-17T18:24:59.701Z,27.60
2023-01-17T18:27:27.037Z,26.40
2023-01-17T18:29:54.237Z,26.37
2023-01-17T18:32:23.102Z,25.27
2023-01-17T18:34:51.488Z,30.07
2023-01-17T18:37:18.627Z,24.53
2023-01-17T18:39:45.727Z,25.97
2023-01-17T18:42:13.278Z,28.07
2023-01-17T18:44:40.870Z,29.87
2023-01-17T18:47:08.018Z,31.03
2023-01-17T18:49:37.078Z,26.93
2023-01-17T18:52:05.283Z,29.53
2023-01-17T18:54:32.320Z,28.90
2023-01-17T18:56:59.474Z,25.70
2023-01-17T18:59:26.588Z,26.70
2023-01-17T19:01:53.722Z,28.20
2023-01-17T19:04:21.614Z,30.90
2023-01-17T19:06:49.166Z,30.47
2023-01-17T19:09:16.550Z,29.40
2023-01-17T19:11:45.514Z,29.10
2023-01-17T19:14:13.031Z,29.73
2023-01-17T19:16:41.573Z,27.27
2023-01-17T19:19:11.578Z,29.87
2023-01-17T19:21:38.941Z,36.97
2023-01-17T19:24:06.850Z,32.20
2023-01-17T19:26:34.230Z,39.07
2023-01-17T19:29:03.771Z,42.93
2023-01-17T19:31:32.348Z,42.50
2023-01-17T19:33:59.951Z,39.03
2023-01-17T19:36:33.859Z,41.70
2023-01-17T19:39:06.118Z,41.03
2023-01-17T19:41:41.716Z,44.80
2023-01-17T19:44:10.724Z,46.17
2023-01-17T19:46:38.130Z,48.47
2023-01-17T19:49:09.853Z,49.43
2023-01-17T19:51:37.438Z,48.13
2023-01-17T19:54:06.644Z,49.07
2023-01-17T19:56:33.966Z,51.37
2023-01-17T19:59:02.130Z,49.33
2023-01-17T20:01:32.092Z,52.80
2023-01-17T20:04:00.247Z,54.13
2023-01-17T20:06:30.638Z,51.87
2023-01-17T20:08:58.792Z,58.67
2023-01-17T20:11:27.375Z,60.43
2023-01-17T20:13:56.472Z,54.47
2023-01-17T20:16:24.929Z,59.63
2023-01-17T20:18:52.618Z,53.80
2023-01-17T20:21:22.641Z,57.67
2023-01-17T20:23:51.297Z,64.73
2023-01-17T20:26:21.076Z,62.07
2023-01-17T20:28:51.384Z,66.93
2023-01-17T20:31:23.983Z,67.27
2023-01-17T20:33:54.241Z,66.07
2023-01-17T20:36:23.374Z,62.43
2023-01-17T20:38:50.575Z,63.87
2023-01-17T20:41:32.961Z,61.40
2023-01-17T20:44:01.979Z,64.50
2023-01-17T20:46:41.379Z,65.40
2023-01-17T20:49:15.833Z,62.50
2023-01-17T20:51:44.601Z,59.63
2023-01-17T20:54:14.538Z,60.00
2023-01-17T20:56:42.177Z,59.87
2023-01-17T20:59:12.993Z,58.00
2023-01-17T21:01:40.463Z,62.50
2023-01-17T21:04:10.389Z,58.77
2023-01-17T21:06:39.007Z,60.30
2023-01-17T21:09:07.424Z,61.23
2023-01-17T21:11:34.509Z,58.73
2023-01-17T21:14:01.787Z,61.93
2023-01-17T21:16:29.061Z,60.50
2023-01-17T21:18:56.194Z,57.40
2023-01-17T21:21:26.201Z,64.67
2023-01-17T21:23:55.274Z,63.83
2023-01-17T21:26:25.707Z,60.83
2023-01-17T21:28:53.849Z,58.90
2023-01-17T21:31:24.679Z,65.50
2023-01-17T21:34:06.494Z,67.67
2023-01-17T21:36:41.116Z,65.40
2023-01-17T21:39:16.217Z,61.43
2023-01-17T21:41:46.133Z,64.37
2023-01-17T21:44:20.586Z,61.37
2023-01-17T21:46:48.808Z,65.93
2023-01-17T21:49:17.265Z,59.53
2023-01-17T21:52:10.509Z,59.53
2023-01-17T21:54:56.386Z,60.83
2023-01-17T21:57:42.081Z,59.23
2023-01-17T22:00:14.556Z,59.63
2023-01-17T22:02:47.306Z,54.10
2023-01-17T22:05:16.477Z,49.03
2023-01-17T22:08:03.187Z,55.97
2023-01-17T22:10:30.237Z,54.87
2023-01-17T22:12:57.439Z,52.57
2023-01-17T22:15:24.589Z,50.77
2023-01-17T22:17:51.480Z,55.20
2023-01-17T22:20:20.913Z,54.13
2023-01-17T22:22:48.447Z,56.33
2023-01-17T22:25:15.518Z,48.70
2023-01-17T22:27:42.584Z,52.93
2023-01-17T22:30:13.035Z,48.67
2023-01-17T22:32:40.680Z,50.30
2023-01-17T22:35:08.521Z,46.80
2023-01-17T22:37:35.831Z,43.83
2023-01-17T22:40:05.999Z,51.67
2023-01-17T22:42:34.493Z,47.83
2023-01-17T22:45:01.717Z,46.17
2023-01-17T22:47:28.913Z,47.77
2023-01-17T22:49:56.336Z,45.43
2023-01-17T22:52:23.427Z,45.43
2023-01-17T22:54:50.976Z,45.27
2023-01-17T22:57:18.263Z,48.30
2023-01-17T22:59:46.274Z,48.97
2023-01-17T23:02:14.569Z,42.07
2023-01-17T23:04:42.714Z,44.30
2023-01-17T23:07:09.837Z,36.63
2023-01-17T23:09:36.907Z,39.60
2023-01-17T23:12:04.178Z,39.53
2023-01-17T23:14:54.642Z,33.33
2023-01-17T23:17:41.593Z,35.97
2023-01-17T23:20:10.539Z,35.67
2023-01-17T23:22:37.782Z,39.97
2023-01-17T23:25:14.411Z,40.67
2023-01-17T23:28:02.615Z,43.13
2023-01-17T23:30:39.107Z,44.57
2023-01-17T23:33:11.703Z,41.83
2023-01-17T23:35:42.300Z,42.40
2023-01-17T23:38:37.653Z,40.83
2023-01-17T23:41:25.554Z,42.10
2023-01-17T23:43:57.231Z,40.60
2023-01-17T23:46:25.664Z,41.47
2023-01-17T23:48:52.944Z,37.27
2023-01-17T23:51:19.962Z,31.67
2023-01-17T23:53:47.111Z,32.90
2023-01-17T23:56:20.309Z,32.17
2023-01-17T23:58:47.767Z,31.47
